sensor_id;sensor_type;location;lat;lon;timestamp;P1;durP1;ratioP1;P2;durP2;ratioP2
75885;SDS011;64561;44.018;10.144;2024-03-08T00:00:12;10.95;;;6.32;;
75885;SDS011;64561;44.018;10.144;2024-03-08T00:02:47;10.90;;;6.10;;
75885;SDS011;64561;44.018;10.144;2024-03-08T00:05:15;8.00;;;3.97;;
75885;SDS011;64561;44.018;10.144;2024-03-08T00:07:42;13.00;;;3.97;;
75885;SDS011;64561;44.018;10.144;2024-03-08T00:10:11;6.65;;;3.58;;
75885;SDS011;64561;44.018;10.144;2024-03-08T00:12:43;5.60;;;3.45;;
75885;SDS011;64561;44.018;10.144;2024-03-08T00:15:13;4.63;;;3.15;;
75885;SDS011;64561;44.018;10.144;2024-03-08T00:17:44;4.50;;;2.60;;
75885;SDS011;64561;44.018;10.144;2024-03-08T00:20:12;5.85;;;4.20;;
75885;SDS011;64561;44.018;10.144;2024-03-08T00:22:40;5.85;;;2.78;;
75885;SDS011;64561;44.018;10.144;2024-03-08T00:25:08;4.28;;;2.65;;
75885;SDS011;64561;44.018;10.144;2024-03-08T00:27:42;5.95;;;2.60;;
75885;SDS011;64561;44.018;10.144;2024-03-08T00:30:10;4.75;;;2.40;;
75885;SDS011;64561;44.018;10.144;2024-03-08T00:32:40;5.00;;;2.35;;
75885;SDS011;64561;44.018;10.144;2024-03-08T00:35:08;4.15;;;1.73;;
75885;SDS011;64561;44.018;10.144;2024-03-08T00:37:35;9.32;;;2.80;;
75885;SDS011;64561;44.018;10.144;2024-03-08T00:40:02;4.72;;;2.80;;
75885;SDS011;64561;44.018;10.144;2024-03-08T00:42:31;4.20;;;3.30;;
75885;SDS011;64561;44.018;10.144;2024-03-08T00:45:00;6.35;;;3.33;;
75885;SDS011;64561;44.018;10.144;2024-03-08T00:47:30;4.13;;;2.63;;
75885;SDS011;64561;44.018;10.144;2024-03-08T00:49:57;3.47;;;2.47;;
75885;SDS011;64561;44.018;10.144;2024-03-08T00:52:24;5.63;;;2.78;;
75885;SDS011;64561;44.018;10.144;2024-03-08T00:54:51;5.53;;;3.00;;
75885;SDS011;64561;44.018;10.144;2024-03-08T00:57:19;8.10;;;3.38;;
75885;SDS011;64561;44.018;10.144;2024-03-08T00:59:46;5.85;;;3.55;;
75885;SDS011;64561;44.018;10.144;2024-03-08T01:02:13;5.38;;;2.72;;
75885;SDS011;64561;44.018;10.144;2024-03-08T01:04:41;4.85;;;2.85;;
75885;SDS011;64561;44.018;10.144;2024-03-08T01:07:08;4.78;;;2.83;;
75885;SDS011;64561;44.018;10.144;2024-03-08T01:09:35;5.03;;;2.83;;
75885;SDS011;64561;44.018;10.144;2024-03-08T01:12:02;6.07;;;4.00;;
75885;SDS011;64561;44.018;10.144;2024-03-08T01:14:30;5.38;;;3.63;;
75885;SDS011;64561;44.018;10.144;2024-03-08T01:16:57;5.85;;;3.45;;
75885;SDS011;64561;44.018;10.144;2024-03-08T01:19:25;4.38;;;3.95;;
75885;SDS011;64561;44.018;10.144;2024-03-08T01:21:52;7.38;;;3.50;;
75885;SDS011;64561;44.018;10.144;2024-03-08T01:24:22;7.07;;;3.58;;
75885;SDS011;64561;44.018;10.144;2024-03-08T01:26:49;5.00;;;3.33;;
75885;SDS011;64561;44.018;10.144;2024-03-08T01:29:17;4.50;;;2.95;;
75885;SDS011;64561;44.018;10.144;2024-03-08T01:31:44;3.72;;;2.13;;
75885;SDS011;64561;44.018;10.144;2024-03-08T01:34:11;3.83;;;2.17;;
75885;SDS011;64561;44.018;10.144;2024-03-08T01:36:38;3.30;;;1.98;;
75885;SDS011;64561;44.018;10.144;2024-03-08T01:39:07;5.00;;;2.72;;
75885;SDS011;64561;44.018;10.144;2024-03-08T01:41:35;4.18;;;2.63;;
75885;SDS011;64561;44.018;10.144;2024-03-08T01:44:03;5.07;;;2.13;;
75885;SDS011;64561;44.018;10.144;2024-03-08T01:46:30;4.45;;;2.70;;
75885;SDS011;64561;44.018;10.144;2024-03-08T01:48:58;5.53;;;2.70;;
75885;SDS011;64561;44.018;10.144;2024-03-08T01:51:28;4.97;;;1.90;;
75885;SDS011;64561;44.018;10.144;2024-03-08T01:53:56;5.65;;;2.00;;
75885;SDS011;64561;44.018;10.144;2024-03-08T01:56:24;6.63;;;2.13;;
75885;SDS011;64561;44.018;10.144;2024-03-08T01:58:52;2.85;;;1.70;;
75885;SDS011;64561;44.018;10.144;2024-03-08T02:01:19;3.83;;;1.80;;
75885;SDS011;64561;44.018;10.144;2024-03-08T02:03:47;4.13;;;3.00;;
75885;SDS011;64561;44.018;10.144;2024-03-08T02:06:14;4.82;;;2.22;;
75885;SDS011;64561;44.018;10.144;2024-03-08T02:08:43;4.57;;;1.90;;
75885;SDS011;64561;44.018;10.144;2024-03-08T02:11:11;3.55;;;2.00;;
75885;SDS011;64561;44.018;10.144;2024-03-08T02:13:39;4.82;;;1.92;;
75885;SDS011;64561;44.018;10.144;2024-03-08T02:16:06;3.58;;;1.65;;
75885;SDS011;64561;44.018;10.144;2024-03-08T02:18:35;3.53;;;1.80;;
75885;SDS011;64561;44.018;10.144;2024-03-08T02:21:04;4.20;;;1.80;;
75885;SDS011;64561;44.018;10.144;2024-03-08T02:23:33;3.03;;;1.80;;
75885;SDS011;64561;44.018;10.144;2024-03-08T02:26:01;4.13;;;1.63;;
75885;SDS011;64561;44.018;10.144;2024-03-08T02:28:28;7.10;;;2.20;;
75885;SDS011;64561;44.018;10.144;2024-03-08T02:30:56;3.53;;;1.60;;
75885;SDS011;64561;44.018;10.144;2024-03-08T02:33:25;4.75;;;1.85;;
75885;SDS011;64561;44.018;10.144;2024-03-08T02:35:54;2.65;;;1.40;;
75885;SDS011;64561;44.018;10.144;2024-03-08T02:38:23;3.40;;;1.50;;
75885;SDS011;64561;44.018;10.144;2024-03-08T02:40:52;4.05;;;1.35;;
75885;SDS011;64561;44.018;10.144;2024-03-08T02:43:21;4.40;;;1.50;;
75885;SDS011;64561;44.018;10.144;2024-03-08T02:45:51;2.13;;;1.40;;
75885;SDS011;64561;44.018;10.144;2024-03-08T02:48:21;2.55;;;1.70;;
75885;SDS011;64561;44.018;10.144;2024-03-08T02:50:49;4.45;;;1.45;;
75885;SDS011;64561;44.018;10.144;2024-03-08T02:53:18;1.95;;;1.15;;
75885;SDS011;64561;44.018;10.144;2024-03-08T02:55:45;3.83;;;1.60;;
75885;SDS011;64561;44.018;10.144;2024-03-08T02:58:13;1.95;;;1.30;;
75885;SDS011;64561;44.018;10.144;2024-03-08T03:00:41;2.15;;;1.27;;
75885;SDS011;64561;44.018;10.144;2024-03-08T03:03:11;3.30;;;1.65;;
75885;SDS011;64561;44.018;10.144;2024-03-08T03:05:39;1.98;;;1.38;;
75885;SDS011;64561;44.018;10.144;2024-03-08T03:08:14;3.28;;;1.90;;
75885;SDS011;64561;44.018;10.144;2024-03-08T03:10:44;4.40;;;2.05;;
75885;SDS011;64561;44.018;10.144;2024-03-08T03:13:12;3.60;;;2.00;;
75885;SDS011;64561;44.018;10.144;2024-03-08T03:15:40;3.03;;;1.63;;
75885;SDS011;64561;44.018;10.144;2024-03-08T03:18:10;2.90;;;1.70;;
75885;SDS011;64561;44.018;10.144;2024-03-08T03:20:38;3.38;;;1.70;;
75885;SDS011;64561;44.018;10.144;2024-03-08T03:23:10;2.47;;;1.73;;
75885;SDS011;64561;44.018;10.144;2024-03-08T03:25:41;2.05;;;1.42;;
75885;SDS011;64561;44.018;10.144;2024-03-08T03:31:11;2.97;;;1.40;;
75885;SDS011;64561;44.018;10.144;2024-03-08T03:33:41;2.72;;;1.10;;
75885;SDS011;64561;44.018;10.144;2024-03-08T03:36:08;2.70;;;1.30;;
75885;SDS011;64561;44.018;10.144;2024-03-08T03:38:37;2.67;;;1.52;;
75885;SDS011;64561;44.018;10.144;2024-03-08T03:41:04;2.60;;;1.52;;
75885;SDS011;64561;44.018;10.144;2024-03-08T03:43:37;2.72;;;1.80;;
75885;SDS011;64561;44.018;10.144;2024-03-08T03:46:06;3.08;;;1.65;;
75885;SDS011;64561;44.018;10.144;2024-03-08T03:48:34;3.60;;;1.95;;
75885;SDS011;64561;44.018;10.144;2024-03-08T03:51:01;2.88;;;1.73;;
75885;SDS011;64561;44.018;10.144;2024-03-08T03:53:28;1.77;;;1.33;;
75885;SDS011;64561;44.018;10.144;2024-03-08T03:55:55;5.57;;;2.00;;
75885;SDS011;64561;44.018;10.144;2024-03-08T03:58:23;4.50;;;1.90;;
75885;SDS011;64561;44.018;10.144;2024-03-08T04:00:50;4.25;;;1.58;;
75885;SDS011;64561;44.018;10.144;2024-03-08T04:03:17;3.10;;;1.52;;
75885;SDS011;64561;44.018;10.144;2024-03-08T04:05:45;3.70;;;1.50;;
75885;SDS011;64561;44.018;10.144;2024-03-08T04:08:13;2.50;;;1.50;;
75885;SDS011;64561;44.018;10.144;2024-03-08T04:10:40;1.55;;;1.15;;
75885;SDS011;64561;44.018;10.144;2024-03-08T04:13:10;2.35;;;1.30;;
75885;SDS011;64561;44.018;10.144;2024-03-08T04:15:37;2.92;;;1.58;;
75885;SDS011;64561;44.018;10.144;2024-03-08T04:18:04;3.08;;;1.70;;
75885;SDS011;64561;44.018;10.144;2024-03-08T04:20:31;3.92;;;1.40;;
75885;SDS011;64561;44.018;10.144;2024-03-08T04:22:59;6.07;;;1.85;;
75885;SDS011;64561;44.018;10.144;2024-03-08T04:25:26;5.55;;;1.85;;
75885;SDS011;64561;44.018;10.144;2024-03-08T04:27:54;2.35;;;1.48;;
75885;SDS011;64561;44.018;10.144;2024-03-08T04:30:21;2.67;;;1.52;;
75885;SDS011;64561;44.018;10.144;2024-03-08T04:32:48;2.60;;;1.35;;
75885;SDS011;64561;44.018;10.144;2024-03-08T04:35:16;3.28;;;1.73;;
75885;SDS011;64561;44.018;10.144;2024-03-08T04:37:43;2.30;;;1.42;;
75885;SDS011;64561;44.018;10.144;2024-03-08T04:40:11;2.78;;;1.55;;
75885;SDS011;64561;44.018;10.144;2024-03-08T04:42:39;3.53;;;1.58;;
75885;SDS011;64561;44.018;10.144;2024-03-08T04:45:08;3.63;;;1.80;;
75885;SDS011;64561;44.018;10.144;2024-03-08T04:47:38;4.82;;;2.88;;
75885;SDS011;64561;44.018;10.144;2024-03-08T04:50:06;8.85;;;3.45;;
75885;SDS011;64561;44.018;10.144;2024-03-08T04:52:33;4.82;;;2.72;;
75885;SDS011;64561;44.018;10.144;2024-03-08T04:55:00;5.00;;;3.33;;
75885;SDS011;64561;44.018;10.144;2024-03-08T04:57:29;10.38;;;4.35;;
75885;SDS011;64561;44.018;10.144;2024-03-08T04:59:56;7.97;;;3.80;;
75885;SDS011;64561;44.018;10.144;2024-03-08T05:02:25;5.55;;;3.72;;
75885;SDS011;64561;44.018;10.144;2024-03-08T05:04:52;5.72;;;3.70;;
75885;SDS011;64561;44.018;10.144;2024-03-08T05:07:20;5.80;;;3.72;;
75885;SDS011;64561;44.018;10.144;2024-03-08T05:09:47;4.75;;;3.40;;
75885;SDS011;64561;44.018;10.144;2024-03-08T05:12:19;4.03;;;3.00;;
75885;SDS011;64561;44.018;10.144;2024-03-08T05:14:46;5.10;;;3.30;;
75885;SDS011;64561;44.018;10.144;2024-03-08T05:17:16;3.53;;;1.90;;
75885;SDS011;64561;44.018;10.144;2024-03-08T05:19:44;4.60;;;2.17;;
75885;SDS011;64561;44.018;10.144;2024-03-08T05:22:12;3.35;;;1.90;;
75885;SDS011;64561;44.018;10.144;2024-03-08T05:24:39;3.80;;;1.98;;
75885;SDS011;64561;44.018;10.144;2024-03-08T05:27:06;15.63;;;6.32;;
75885;SDS011;64561;44.018;10.144;2024-03-08T05:29:33;13.73;;;6.35;;
75885;SDS011;64561;44.018;10.144;2024-03-08T05:32:00;12.80;;;4.88;;
75885;SDS011;64561;44.018;10.144;2024-03-08T05:34:28;9.98;;;4.90;;
75885;SDS011;64561;44.018;10.144;2024-03-08T05:36:56;10.52;;;4.75;;
75885;SDS011;64561;44.018;10.144;2024-03-08T05:39:25;13.00;;;6.30;;
75885;SDS011;64561;44.018;10.144;2024-03-08T05:41:52;13.55;;;5.95;;
75885;SDS011;64561;44.018;10.144;2024-03-08T05:44:19;12.90;;;5.38;;
75885;SDS011;64561;44.018;10.144;2024-03-08T05:46:46;11.15;;;5.95;;
75885;SDS011;64561;44.018;10.144;2024-03-08T05:49:14;9.35;;;5.57;;
75885;SDS011;64561;44.018;10.144;2024-03-08T05:51:42;10.00;;;6.60;;
75885;SDS011;64561;44.018;10.144;2024-03-08T05:54:10;16.33;;;6.82;;
75885;SDS011;64561;44.018;10.144;2024-03-08T05:56:42;18.33;;;7.80;;
75885;SDS011;64561;44.018;10.144;2024-03-08T05:59:11;17.50;;;8.52;;
75885;SDS011;64561;44.018;10.144;2024-03-08T06:01:38;20.25;;;9.18;;
75885;SDS011;64561;44.018;10.144;2024-03-08T06:04:09;13.27;;;8.38;;
75885;SDS011;64561;44.018;10.144;2024-03-08T06:06:39;14.77;;;7.47;;
75885;SDS011;64561;44.018;10.144;2024-03-08T06:09:08;13.07;;;7.05;;
75885;SDS011;64561;44.018;10.144;2024-03-08T06:11:49;16.05;;;8.55;;
75885;SDS011;64561;44.018;10.144;2024-03-08T06:14:17;15.82;;;7.40;;
75885;SDS011;64561;44.018;10.144;2024-03-08T06:16:45;20.42;;;8.48;;
75885;SDS011;64561;44.018;10.144;2024-03-08T06:19:13;18.42;;;9.93;;
75885;SDS011;64561;44.018;10.144;2024-03-08T06:21:40;20.05;;;9.07;;
75885;SDS011;64561;44.018;10.144;2024-03-08T06:24:08;18.80;;;9.07;;
75885;SDS011;64561;44.018;10.144;2024-03-08T06:26:35;14.30;;;8.07;;
75885;SDS011;64561;44.018;10.144;2024-03-08T06:29:05;15.32;;;8.00;;
75885;SDS011;64561;44.018;10.144;2024-03-08T06:31:33;15.98;;;8.50;;
75885;SDS011;64561;44.018;10.144;2024-03-08T06:34:01;18.50;;;8.27;;
75885;SDS011;64561;44.018;10.144;2024-03-08T06:36:28;12.00;;;6.82;;
75885;SDS011;64561;44.018;10.144;2024-03-08T06:38:55;14.07;;;7.20;;
75885;SDS011;64561;44.018;10.144;2024-03-08T06:41:24;20.38;;;8.68;;
75885;SDS011;64561;44.018;10.144;2024-03-08T06:43:51;12.52;;;6.20;;
75885;SDS011;64561;44.018;10.144;2024-03-08T06:46:19;9.93;;;6.35;;
75885;SDS011;64561;44.018;10.144;2024-03-08T06:48:48;9.32;;;6.10;;
75885;SDS011;64561;44.018;10.144;2024-03-08T06:51:17;12.38;;;6.88;;
75885;SDS011;64561;44.018;10.144;2024-03-08T06:53:45;16.27;;;8.75;;
75885;SDS011;64561;44.018;10.144;2024-03-08T06:56:13;16.40;;;10.27;;
75885;SDS011;64561;44.018;10.144;2024-03-08T06:58:40;18.52;;;10.30;;
75885;SDS011;64561;44.018;10.144;2024-03-08T07:01:07;17.77;;;9.10;;
75885;SDS011;64561;44.018;10.144;2024-03-08T07:03:41;12.35;;;7.53;;
75885;SDS011;64561;44.018;10.144;2024-03-08T07:06:11;9.38;;;7.15;;
75885;SDS011;64561;44.018;10.144;2024-03-08T07:08:38;12.13;;;7.20;;
75885;SDS011;64561;44.018;10.144;2024-03-08T07:11:06;14.95;;;8.70;;
75885;SDS011;64561;44.018;10.144;2024-03-08T07:13:33;16.15;;;8.73;;
75885;SDS011;64561;44.018;10.144;2024-03-08T07:16:00;18.10;;;8.18;;
75885;SDS011;64561;44.018;10.144;2024-03-08T07:18:28;15.88;;;8.98;;
75885;SDS011;64561;44.018;10.144;2024-03-08T07:20:57;15.13;;;9.13;;
75885;SDS011;64561;44.018;10.144;2024-03-08T07:23:25;16.75;;;8.75;;
75885;SDS011;64561;44.018;10.144;2024-03-08T07:26:27;15.75;;;9.50;;
75885;SDS011;64561;44.018;10.144;2024-03-08T07:28:54;15.90;;;9.18;;
75885;SDS011;64561;44.018;10.144;2024-03-08T07:31:22;12.43;;;7.18;;
75885;SDS011;64561;44.018;10.144;2024-03-08T07:34:04;10.70;;;5.35;;
75885;SDS011;64561;44.018;10.144;2024-03-08T07:36:34;7.22;;;4.40;;
75885;SDS011;64561;44.018;10.144;2024-03-08T07:39:01;9.77;;;4.57;;
75885;SDS011;64561;44.018;10.144;2024-03-08T07:41:30;15.32;;;8.13;;
75885;SDS011;64561;44.018;10.144;2024-03-08T07:43:57;15.75;;;10.02;;
75885;SDS011;64561;44.018;10.144;2024-03-08T07:46:24;14.10;;;9.32;;
75885;SDS011;64561;44.018;10.144;2024-03-08T07:48:54;17.13;;;9.85;;
75885;SDS011;64561;44.018;10.144;2024-03-08T07:51:21;14.98;;;9.45;;
75885;SDS011;64561;44.018;10.144;2024-03-08T07:53:48;17.38;;;9.05;;
75885;SDS011;64561;44.018;10.144;2024-03-08T07:56:16;14.93;;;8.13;;
75885;SDS011;64561;44.018;10.144;2024-03-08T07:58:45;13.15;;;7.22;;
75885;SDS011;64561;44.018;10.144;2024-03-08T08:01:16;14.13;;;7.00;;
75885;SDS011;64561;44.018;10.144;2024-03-08T08:03:44;13.32;;;6.72;;
75885;SDS011;64561;44.018;10.144;2024-03-08T08:06:12;8.40;;;5.70;;
75885;SDS011;64561;44.018;10.144;2024-03-08T08:08:42;9.60;;;5.60;;
75885;SDS011;64561;44.018;10.144;2024-03-08T08:11:10;8.13;;;5.30;;
75885;SDS011;64561;44.018;10.144;2024-03-08T08:13:42;13.60;;;6.20;;
75885;SDS011;64561;44.018;10.144;2024-03-08T08:16:10;10.57;;;5.88;;
75885;SDS011;64561;44.018;10.144;2024-03-08T08:18:40;12.93;;;6.78;;
75885;SDS011;64561;44.018;10.144;2024-03-08T08:21:07;9.75;;;6.57;;
75885;SDS011;64561;44.018;10.144;2024-03-08T08:23:34;13.18;;;6.72;;
75885;SDS011;64561;44.018;10.144;2024-03-08T08:26:01;10.85;;;7.22;;
75885;SDS011;64561;44.018;10.144;2024-03-08T08:28:31;13.95;;;6.65;;
75885;SDS011;64561;44.018;10.144;2024-03-08T08:30:59;11.32;;;6.38;;
75885;SDS011;64561;44.018;10.144;2024-03-08T08:33:26;12.02;;;6.60;;
75885;SDS011;64561;44.018;10.144;2024-03-08T08:35:53;12.70;;;6.38;;
75885;SDS011;64561;44.018;10.144;2024-03-08T08:38:20;12.40;;;7.70;;
75885;SDS011;64561;44.018;10.144;2024-03-08T08:40:48;11.02;;;6.70;;
75885;SDS011;64561;44.018;10.144;2024-03-08T08:43:16;11.02;;;6.72;;
75885;SDS011;64561;44.018;10.144;2024-03-08T08:45:44;14.98;;;6.93;;
75885;SDS011;64561;44.018;10.144;2024-03-08T08:48:14;9.52;;;5.90;;
75885;SDS011;64561;44.018;10.144;2024-03-08T08:50:41;9.98;;;5.78;;
75885;SDS011;64561;44.018;10.144;2024-03-08T08:53:08;11.23;;;5.43;;
75885;SDS011;64561;44.018;10.144;2024-03-08T08:55:35;7.78;;;4.70;;
75885;SDS011;64561;44.018;10.144;2024-03-08T08:58:02;6.28;;;4.57;;
75885;SDS011;64561;44.018;10.144;2024-03-08T09:00:30;7.00;;;4.30;;
75885;SDS011;64561;44.018;10.144;2024-03-08T09:02:59;6.00;;;3.58;;
75885;SDS011;64561;44.018;10.144;2024-03-08T09:05:26;6.28;;;3.70;;
75885;SDS011;64561;44.018;10.144;2024-03-08T09:07:54;6.43;;;3.72;;
75885;SDS011;64561;44.018;10.144;2024-03-08T09:10:22;5.10;;;3.95;;
75885;SDS011;64561;44.018;10.144;2024-03-08T09:12:56;10.88;;;4.15;;
75885;SDS011;64561;44.018;10.144;2024-03-08T09:15:23;6.65;;;4.05;;
75885;SDS011;64561;44.018;10.144;2024-03-08T09:17:55;7.45;;;3.55;;
75885;SDS011;64561;44.018;10.144;2024-03-08T09:20:22;6.38;;;3.40;;
75885;SDS011;64561;44.018;10.144;2024-03-08T09:22:50;7.20;;;5.13;;
75885;SDS011;64561;44.018;10.144;2024-03-08T09:25:17;7.63;;;3.45;;
75885;SDS011;64561;44.018;10.144;2024-03-08T09:27:44;5.72;;;3.53;;
75885;SDS011;64561;44.018;10.144;2024-03-08T09:30:13;8.80;;;3.67;;
75885;SDS011;64561;44.018;10.144;2024-03-08T09:32:42;6.75;;;3.08;;
75885;SDS011;64561;44.018;10.144;2024-03-08T09:35:10;6.45;;;3.15;;
75885;SDS011;64561;44.018;10.144;2024-03-08T09:37:38;6.63;;;3.40;;
75885;SDS011;64561;44.018;10.144;2024-03-08T09:40:05;6.28;;;3.55;;
75885;SDS011;64561;44.018;10.144;2024-03-08T09:42:37;9.82;;;3.10;;
75885;SDS011;64561;44.018;10.144;2024-03-08T09:45:06;4.85;;;2.80;;
75885;SDS011;64561;44.018;10.144;2024-03-08T09:47:39;7.10;;;3.67;;
75885;SDS011;64561;44.018;10.144;2024-03-08T09:50:07;8.38;;;3.60;;
75885;SDS011;64561;44.018;10.144;2024-03-08T09:52:36;5.72;;;3.75;;
75885;SDS011;64561;44.018;10.144;2024-03-08T09:55:06;4.97;;;2.83;;
75885;SDS011;64561;44.018;10.144;2024-03-08T09:57:34;9.23;;;3.88;;
75885;SDS011;64561;44.018;10.144;2024-03-08T10:00:04;9.00;;;4.80;;
75885;SDS011;64561;44.018;10.144;2024-03-08T10:02:45;5.45;;;2.97;;
75885;SDS011;64561;44.018;10.144;2024-03-08T10:05:13;8.07;;;3.58;;
75885;SDS011;64561;44.018;10.144;2024-03-08T10:07:40;5.35;;;2.70;;
75885;SDS011;64561;44.018;10.144;2024-03-08T10:10:08;6.38;;;3.03;;
75885;SDS011;64561;44.018;10.144;2024-03-08T10:12:35;4.45;;;3.20;;
75885;SDS011;64561;44.018;10.144;2024-03-08T10:15:03;7.50;;;3.40;;
75885;SDS011;64561;44.018;10.144;2024-03-08T10:17:32;5.68;;;3.00;;
75885;SDS011;64561;44.018;10.144;2024-03-08T10:20:00;7.25;;;2.30;;
75885;SDS011;64561;44.018;10.144;2024-03-08T10:22:29;4.53;;;1.85;;
75885;SDS011;64561;44.018;10.144;2024-03-08T10:24:58;3.35;;;1.80;;
75885;SDS011;64561;44.018;10.144;2024-03-08T10:27:25;4.35;;;2.30;;
75885;SDS011;64561;44.018;10.144;2024-03-08T10:29:53;5.68;;;2.33;;
75885;SDS011;64561;44.018;10.144;2024-03-08T10:32:20;3.22;;;1.63;;
75885;SDS011;64561;44.018;10.144;2024-03-08T10:34:48;3.88;;;1.90;;
75885;SDS011;64561;44.018;10.144;2024-03-08T10:37:17;3.45;;;1.70;;
75885;SDS011;64561;44.018;10.144;2024-03-08T10:39:53;3.13;;;1.80;;
75885;SDS011;64561;44.018;10.144;2024-03-08T10:42:40;4.03;;;2.00;;
75885;SDS011;64561;44.018;10.144;2024-03-08T10:45:15;3.25;;;1.70;;
75885;SDS011;64561;44.018;10.144;2024-03-08T10:48:09;3.28;;;1.77;;
75885;SDS011;64561;44.018;10.144;2024-03-08T10:50:49;4.40;;;1.70;;
75885;SDS011;64561;44.018;10.144;2024-03-08T10:53:20;3.75;;;1.48;;
75885;SDS011;64561;44.018;10.144;2024-03-08T10:55:50;4.57;;;1.90;;
75885;SDS011;64561;44.018;10.144;2024-03-08T10:58:24;4.72;;;2.05;;
75885;SDS011;64561;44.018;10.144;2024-03-08T11:00:55;6.25;;;2.72;;
75885;SDS011;64561;44.018;10.144;2024-03-08T11:06:15;6.03;;;2.30;;
75885;SDS011;64561;44.018;10.144;2024-03-08T11:09:11;4.57;;;2.28;;
75885;SDS011;64561;44.018;10.144;2024-03-08T11:14:50;2.40;;;1.50;;
75885;SDS011;64561;44.018;10.144;2024-03-08T11:17:39;4.55;;;2.83;;
75885;SDS011;64561;44.018;10.144;2024-03-08T11:20:11;7.43;;;3.33;;
75885;SDS011;64561;44.018;10.144;2024-03-08T11:22:47;6.57;;;2.92;;
75885;SDS011;64561;44.018;10.144;2024-03-08T11:28:23;5.38;;;2.65;;
75885;SDS011;64561;44.018;10.144;2024-03-08T11:33:29;4.65;;;1.83;;
75885;SDS011;64561;44.018;10.144;2024-03-08T11:38:44;5.95;;;2.17;;
75885;SDS011;64561;44.018;10.144;2024-03-08T11:41:19;3.60;;;2.00;;
75885;SDS011;64561;44.018;10.144;2024-03-08T11:43:48;5.40;;;2.38;;
75885;SDS011;64561;44.018;10.144;2024-03-08T11:46:16;6.47;;;2.85;;
75885;SDS011;64561;44.018;10.144;2024-03-08T11:48:47;4.68;;;2.60;;
75885;SDS011;64561;44.018;10.144;2024-03-08T11:51:15;4.20;;;2.25;;
75885;SDS011;64561;44.018;10.144;2024-03-08T11:53:45;5.50;;;2.30;;
75885;SDS011;64561;44.018;10.144;2024-03-08T11:56:15;4.85;;;2.90;;
75885;SDS011;64561;44.018;10.144;2024-03-08T11:58:52;6.07;;;2.63;;
75885;SDS011;64561;44.018;10.144;2024-03-08T12:01:20;4.18;;;2.53;;
75885;SDS011;64561;44.018;10.144;2024-03-08T12:03:52;5.65;;;3.33;;
75885;SDS011;64561;44.018;10.144;2024-03-08T12:06:26;4.68;;;3.00;;
75885;SDS011;64561;44.018;10.144;2024-03-08T12:08:54;4.93;;;2.60;;
75885;SDS011;64561;44.018;10.144;2024-03-08T12:11:21;4.95;;;2.60;;
75885;SDS011;64561;44.018;10.144;2024-03-08T12:13:55;5.20;;;2.47;;
75885;SDS011;64561;44.018;10.144;2024-03-08T12:16:24;6.57;;;2.70;;
75885;SDS011;64561;44.018;10.144;2024-03-08T12:18:51;5.20;;;2.45;;
75885;SDS011;64561;44.018;10.144;2024-03-08T12:21:20;6.35;;;3.22;;
75885;SDS011;64561;44.018;10.144;2024-03-08T12:24:01;5.65;;;2.95;;
75885;SDS011;64561;44.018;10.144;2024-03-08T12:26:30;6.57;;;2.67;;
75885;SDS011;64561;44.018;10.144;2024-03-08T12:32:01;5.07;;;2.90;;
75885;SDS011;64561;44.018;10.144;2024-03-08T12:34:32;6.25;;;2.85;;
75885;SDS011;64561;44.018;10.144;2024-03-08T12:36:59;6.78;;;3.22;;
75885;SDS011;64561;44.018;10.144;2024-03-08T12:39:26;4.80;;;3.22;;
75885;SDS011;64561;44.018;10.144;2024-03-08T12:41:54;8.00;;;3.83;;
75885;SDS011;64561;44.018;10.144;2024-03-08T12:44:24;10.65;;;3.00;;
75885;SDS011;64561;44.018;10.144;2024-03-08T12:46:53;7.20;;;4.13;;
75885;SDS011;64561;44.018;10.144;2024-03-08T12:49:21;8.13;;;4.82;;
75885;SDS011;64561;44.018;10.144;2024-03-08T12:51:52;10.02;;;3.72;;
75885;SDS011;64561;44.018;10.144;2024-03-08T12:54:20;7.63;;;3.03;;
75885;SDS011;64561;44.018;10.144;2024-03-08T12:59:21;4.85;;;2.97;;
75885;SDS011;64561;44.018;10.144;2024-03-08T13:01:49;4.70;;;2.42;;
75885;SDS011;64561;44.018;10.144;2024-03-08T13:04:18;7.70;;;3.55;;
75885;SDS011;64561;44.018;10.144;2024-03-08T13:06:45;6.90;;;3.17;;
75885;SDS011;64561;44.018;10.144;2024-03-08T13:09:21;6.82;;;3.40;;
75885;SDS011;64561;44.018;10.144;2024-03-08T13:11:49;6.32;;;3.17;;
75885;SDS011;64561;44.018;10.144;2024-03-08T13:14:16;6.57;;;3.22;;
75885;SDS011;64561;44.018;10.144;2024-03-08T13:16:43;6.45;;;3.17;;
75885;SDS011;64561;44.018;10.144;2024-03-08T13:19:15;5.80;;;2.70;;
75885;SDS011;64561;44.018;10.144;2024-03-08T13:21:43;6.03;;;2.65;;
75885;SDS011;64561;44.018;10.144;2024-03-08T13:24:16;9.82;;;2.80;;
75885;SDS011;64561;44.018;10.144;2024-03-08T13:26:46;5.55;;;3.25;;
75885;SDS011;64561;44.018;10.144;2024-03-08T13:29:14;5.70;;;2.45;;
75885;SDS011;64561;44.018;10.144;2024-03-08T13:31:41;5.05;;;2.00;;
75885;SDS011;64561;44.018;10.144;2024-03-08T13:34:09;4.18;;;2.40;;
75885;SDS011;64561;44.018;10.144;2024-03-08T13:36:38;5.15;;;2.70;;
75885;SDS011;64561;44.018;10.144;2024-03-08T13:39:11;4.50;;;2.28;;
75885;SDS011;64561;44.018;10.144;2024-03-08T13:41:48;6.15;;;2.85;;
75885;SDS011;64561;44.018;10.144;2024-03-08T13:44:15;3.92;;;2.38;;
75885;SDS011;64561;44.018;10.144;2024-03-08T13:46:46;3.97;;;2.97;;
75885;SDS011;64561;44.018;10.144;2024-03-08T13:49:16;4.28;;;2.25;;
75885;SDS011;64561;44.018;10.144;2024-03-08T13:51:44;4.60;;;2.47;;
75885;SDS011;64561;44.018;10.144;2024-03-08T13:54:12;4.80;;;2.40;;
75885;SDS011;64561;44.018;10.144;2024-03-08T13:56:39;4.65;;;2.17;;
75885;SDS011;64561;44.018;10.144;2024-03-08T13:59:07;6.70;;;2.65;;
75885;SDS011;64561;44.018;10.144;2024-03-08T14:01:36;5.32;;;2.33;;
75885;SDS011;64561;44.018;10.144;2024-03-08T14:04:03;5.20;;;2.58;;
75885;SDS011;64561;44.018;10.144;2024-03-08T14:06:31;4.35;;;2.17;;
75885;SDS011;64561;44.018;10.144;2024-03-08T14:08:58;3.97;;;2.13;;
75885;SDS011;64561;44.018;10.144;2024-03-08T14:11:26;6.90;;;2.20;;
75885;SDS011;64561;44.018;10.144;2024-03-08T14:13:53;5.40;;;2.20;;
75885;SDS011;64561;44.018;10.144;2024-03-08T14:16:21;3.70;;;2.10;;
75885;SDS011;64561;44.018;10.144;2024-03-08T14:18:48;3.70;;;2.10;;
75885;SDS011;64561;44.018;10.144;2024-03-08T14:21:16;4.30;;;2.47;;
75885;SDS011;64561;44.018;10.144;2024-03-08T14:23:44;5.45;;;3.08;;
75885;SDS011;64561;44.018;10.144;2024-03-08T14:26:11;5.13;;;2.50;;
75885;SDS011;64561;44.018;10.144;2024-03-08T14:28:39;4.72;;;2.08;;
75885;SDS011;64561;44.018;10.144;2024-03-08T14:31:06;7.10;;;2.80;;
75885;SDS011;64561;44.018;10.144;2024-03-08T14:33:38;3.85;;;2.17;;
75885;SDS011;64561;44.018;10.144;2024-03-08T14:36:05;6.03;;;2.58;;
75885;SDS011;64561;44.018;10.144;2024-03-08T14:38:33;5.05;;;2.65;;
75885;SDS011;64561;44.018;10.144;2024-03-08T14:41:01;5.93;;;3.22;;
75885;SDS011;64561;44.018;10.144;2024-03-08T14:43:31;4.22;;;2.45;;
75885;SDS011;64561;44.018;10.144;2024-03-08T14:45:59;6.22;;;2.55;;
75885;SDS011;64561;44.018;10.144;2024-03-08T14:48:26;4.50;;;2.88;;
75885;SDS011;64561;44.018;10.144;2024-03-08T14:50:54;5.80;;;3.40;;
75885;SDS011;64561;44.018;10.144;2024-03-08T14:53:21;5.82;;;2.70;;
75885;SDS011;64561;44.018;10.144;2024-03-08T14:55:49;5.82;;;2.92;;
75885;SDS011;64561;44.018;10.144;2024-03-08T14:58:16;7.40;;;2.78;;
75885;SDS011;64561;44.018;10.144;2024-03-08T15:00:44;5.72;;;2.88;;
75885;SDS011;64561;44.018;10.144;2024-03-08T15:03:13;3.65;;;2.47;;